Flight Briefing for CPX118

Departure Arrival
Ted Stevens Anchorage International Airport (PANC)
Click to view FAA NOTAMS
Los Angeles International Airport (KLAX)
Click to view FAA NOTAMS
Departure Time Arrival Time
N/A N/A
Aircraft Distance
B747-400BCF 2090nm
Departure METAR Arrival METAR
PANC 250153Z 33005KT 10SM FEW050 SCT060 16/04 A3020 RMK AO2 SLP227 T01610044 KLAX 250153Z 26012KT 10SM FEW045 SCT150 17/10 A2989 RMK AO2 SLP122 T01670100
Suggested Route
MDO B453 KURTT B453 KYLLE B453 BOXER ENI OAK TILLT HUULL HUULL2


View recent IFR Routes data
Notes



Charts and Procedures

Charts for PANC
No chart available
Charts for KLAX
No chart available

Windy.com Weather Map